createdAt,value
2018-02-15T00:03:07.743Z,14.30
2018-02-15T00:08:10.855Z,14.73
2018-02-15T00:13:13.981Z,15.70
2018-02-15T00:18:17.079Z,15.10
2018-02-15T00:23:20.207Z,12.67
2018-02-15T00:28:24.090Z,15.20
2018-02-15T00:33:27.595Z,13.73
2018-02-15T00:38:31.500Z,16.20
2018-02-15T00:43:35.424Z,14.87
2018-02-15T00:48:38.996Z,15.73
2018-02-15T00:53:42.070Z,17.03
2018-02-15T00:58:45.161Z,13.00
2018-02-15T01:03:49.595Z,14.30
2018-02-15T01:08:53.446Z,14.83
2018-02-15T01:13:56.524Z,15.03
2018-02-15T01:18:59.992Z,14.20
2018-02-15T01:24:04.200Z,14.47
2018-02-15T01:29:08.046Z,13.37
2018-02-15T01:34:11.123Z,16.00
2018-02-15T01:39:14.206Z,13.63
2018-02-15T01:44:18.634Z,13.20
2018-02-15T01:49:22.486Z,14.73
2018-02-15T01:54:25.559Z,14.10
2018-02-15T01:59:30.147Z,14.93
2018-02-15T02:04:34.587Z,13.40
2018-02-15T02:09:38.055Z,14.57
2018-02-15T02:14:41.150Z,15.90
2018-02-15T02:19:44.227Z,15.27
2018-02-15T02:24:47.316Z,16.87
2018-02-15T02:29:51.751Z,16.67
2018-02-15T02:34:56.334Z,15.40
2018-02-15T02:40:00.184Z,14.63
2018-02-15T02:45:03.267Z,14.40
2018-02-15T02:50:06.339Z,15.40
2018-02-15T02:55:10.196Z,14.07
2018-02-15T03:00:13.271Z,15.47
2018-02-15T03:05:17.711Z,13.87
2018-02-15T03:10:22.299Z,14.52
2018-02-15T03:15:25.401Z,15.30
2018-02-15T03:20:29.235Z,15.17
2018-02-15T03:25:32.312Z,15.93
2018-02-15T03:30:36.197Z,14.37
2018-02-15T03:35:39.670Z,15.60
2018-02-15T03:40:43.537Z,15.80
2018-02-15T03:45:47.973Z,16.37
2018-02-15T03:50:52.418Z,15.57
2018-02-15T03:55:56.866Z,17.67
2018-02-15T04:01:00.346Z,17.65
2018-02-15T04:06:04.568Z,17.67
2018-02-15T04:11:08.433Z,17.87
2018-02-15T04:16:12.676Z,21.87
2018-02-15T04:21:17.117Z,24.10
2018-02-15T04:26:20.634Z,21.13
2018-02-15T04:31:25.032Z,21.57
2018-02-15T04:36:29.480Z,23.63
2018-02-15T04:41:32.556Z,25.30
2018-02-15T04:46:36.427Z,30.90
2018-02-15T04:51:40.644Z,34.00
2018-02-15T04:56:44.515Z,31.87
2018-02-15T05:01:49.033Z,34.03
2018-02-15T05:06:53.473Z,37.07
2018-02-15T05:11:57.323Z,41.13
2018-02-15T05:17:01.758Z,38.72
2018-02-15T05:22:04.836Z,42.53
2018-02-15T05:27:10.394Z,42.87
2018-02-15T05:32:14.999Z,43.33
2018-02-15T05:37:18.082Z,43.83
2018-02-15T05:42:21.159Z,44.80
2018-02-15T05:47:27.718Z,46.30
2018-02-15T05:52:32.314Z,48.40
2018-02-15T05:57:35.790Z,47.33
2018-02-15T06:02:39.646Z,41.77
2018-02-15T06:07:44.084Z,47.57
2018-02-15T06:12:47.163Z,44.27
2018-02-15T06:17:50.646Z,43.90
2018-02-15T06:22:54.863Z,42.27
2018-02-15T06:27:58.014Z,38.60
2018-02-15T06:33:02.440Z,35.47
2018-02-15T06:38:05.506Z,38.30
2018-02-15T06:43:08.586Z,34.53
2018-02-15T06:48:13.022Z,32.63
2018-02-15T06:53:17.486Z,34.07
2018-02-15T06:58:20.956Z,31.30
2018-02-15T07:03:25.546Z,27.70
2018-02-15T07:08:29.771Z,29.33
2018-02-15T07:13:34.363Z,28.50
2018-02-15T07:18:38.793Z,22.10
2018-02-15T07:23:41.891Z,22.10
2018-02-15T07:28:44.983Z,24.13
2018-02-15T07:33:48.823Z,24.67
2018-02-15T07:38:52.673Z,23.87
2018-02-15T07:43:57.098Z,24.07
2018-02-15T07:49:01.539Z,25.57
2018-02-15T07:54:04.613Z,24.70
2018-02-15T07:59:07.708Z,27.20
2018-02-15T08:04:12.192Z,26.37
2018-02-15T08:09:16.031Z,27.63
2018-02-15T08:14:19.108Z,30.83
2018-02-15T08:19:22.207Z,28.77
2018-02-15T08:24:25.295Z,30.10
2018-02-15T08:29:28.774Z,30.83
2018-02-15T08:34:32.255Z,34.10
2018-02-15T08:39:35.727Z,30.37
2018-02-15T08:44:39.942Z,28.17
2018-02-15T08:49:43.795Z,26.80
2018-02-15T08:54:46.876Z,29.17
2018-02-15T08:59:50.720Z,24.93
2018-02-15T09:04:55.153Z,26.80
2018-02-15T09:09:58.619Z,23.87
2018-02-15T09:15:01.708Z,27.33
2018-02-15T09:20:04.781Z,30.30
2018-02-15T09:25:08.623Z,29.47
2018-02-15T09:30:13.062Z,29.43
2018-02-15T09:35:16.150Z,30.58
2018-02-15T09:40:20.582Z,26.70
2018-02-15T09:45:24.056Z,24.23
2018-02-15T09:50:27.151Z,24.70
2018-02-15T09:55:30.228Z,21.37
2018-02-15T10:00:34.075Z,28.38
2018-02-15T10:05:37.157Z,26.77
2018-02-15T10:10:41.013Z,27.50
2018-02-15T10:15:44.086Z,25.73
2018-02-15T10:20:48.520Z,27.87
2018-02-15T10:25:51.990Z,26.77
2018-02-15T10:30:55.075Z,26.30
2018-02-15T10:35:58.914Z,26.33
2018-02-15T10:41:01.990Z,22.60
2018-02-15T10:46:05.066Z,24.20
2018-02-15T10:51:08.197Z,24.03
2018-02-15T10:56:12.583Z,29.00
2018-02-15T11:01:21.971Z,24.93
2018-02-15T11:06:25.440Z,23.10
2018-02-15T11:11:28.523Z,22.37
2018-02-15T11:16:31.994Z,19.93
2018-02-15T11:21:35.078Z,18.80
2018-02-15T11:26:38.151Z,17.93
2018-02-15T11:31:41.227Z,17.07
2018-02-15T11:36:44.310Z,15.63
2018-02-15T11:41:47.387Z,18.77
2018-02-15T11:46:51.230Z,17.80
2018-02-15T11:51:54.323Z,19.00
2018-02-15T11:56:57.394Z,16.20
2018-02-15T12:02:02.063Z,16.77
2018-02-15T12:07:05.562Z,19.57
2018-02-15T12:12:11.118Z,17.40
2018-02-15T12:17:14.578Z,17.97
2018-02-15T12:22:18.804Z,18.90
2018-02-15T12:27:21.876Z,16.57
2018-02-15T12:32:26.316Z,15.23
2018-02-15T12:37:30.733Z,15.37
2018-02-15T12:42:35.354Z,18.07
2018-02-15T12:47:39.786Z,16.23
2018-02-15T12:52:43.637Z,13.13
2018-02-15T12:57:47.878Z,13.00
2018-02-15T13:02:52.470Z,12.20
2018-02-15T13:07:55.559Z,12.10
2018-02-15T13:13:16.570Z,12.77
2018-02-15T13:18:20.422Z,11.77
2018-02-15T13:23:23.533Z,12.87
2018-02-15T13:28:38.753Z,10.57
2018-02-15T13:33:42.586Z,10.83
2018-02-15T13:38:45.695Z,11.53
2018-02-15T13:43:49.159Z,10.50
2018-02-15T13:48:52.615Z,10.73
2018-02-15T13:53:55.746Z,11.83
2018-02-15T13:58:58.820Z,10.20
2018-02-15T14:04:02.710Z,12.17
2018-02-15T14:09:05.742Z,10.53
2018-02-15T14:14:08.815Z,10.53
2018-02-15T14:19:13.259Z,11.70
2018-02-15T14:24:16.751Z,12.90
2018-02-15T14:29:20.641Z,10.93
2018-02-15T14:34:25.084Z,10.40
2018-02-15T14:39:28.146Z,9.70
2018-02-15T14:44:31.615Z,10.47
2018-02-15T14:49:34.694Z,9.80
2018-02-15T14:54:37.766Z,11.43
2018-02-15T14:59:42.949Z,8.60
2018-02-15T15:04:46.039Z,9.93
2018-02-15T15:09:49.496Z,10.27
2018-02-15T15:14:52.974Z,11.40
2018-02-15T15:19:56.815Z,11.83
2018-02-15T15:24:59.903Z,19.57
2018-02-15T15:30:04.350Z,22.47
2018-02-15T15:35:07.427Z,21.10
2018-02-15T15:40:10.894Z,20.80
2018-02-15T15:45:13.965Z,21.90
2018-02-15T15:50:17.806Z,19.53
2018-02-15T15:55:20.899Z,21.53
2018-02-15T16:00:24.777Z,19.80
2018-02-15T16:05:27.838Z,18.67
2018-02-15T16:10:32.062Z,17.80
2018-02-15T16:15:36.294Z,17.10
2018-02-15T16:20:40.738Z,16.27
2018-02-15T16:25:44.249Z,17.07
2018-02-15T16:30:48.381Z,18.73
2018-02-15T16:35:52.831Z,15.30
2018-02-15T16:40:56.298Z,14.60
2018-02-15T16:45:59.362Z,10.77
2018-02-15T16:51:03.214Z,13.57
2018-02-15T16:56:06.293Z,11.83
2018-02-15T17:01:10.874Z,13.37
2018-02-15T17:06:15.015Z,9.73
2018-02-15T17:11:18.481Z,8.73
2018-02-15T17:16:22.278Z,8.93
2018-02-15T17:21:26.120Z,9.10
2018-02-15T17:26:30.525Z,9.60
2018-02-15T17:31:34.747Z,15.00
2018-02-15T17:36:37.834Z,18.97
2018-02-15T17:41:40.931Z,13.10
2018-02-15T17:46:45.366Z,14.93
2018-02-15T17:51:49.363Z,13.93
2018-02-15T17:56:54.698Z,15.20
2018-02-15T18:01:58.123Z,15.20
2018-02-15T18:07:02.357Z,13.10
2018-02-15T18:12:06.556Z,16.17
2018-02-15T18:17:11.855Z,13.75
2018-02-15T18:22:16.968Z,13.60
2018-02-15T18:27:21.402Z,12.37
2018-02-15T18:32:24.507Z,15.40
2018-02-15T18:37:28.355Z,12.97
2018-02-15T18:42:31.427Z,12.73
2018-02-15T18:47:34.535Z,12.63
2018-02-15T18:52:37.626Z,9.57
2018-02-15T18:57:42.050Z,17.50
2018-02-15T19:02:45.518Z,15.10
2018-02-15T19:07:49.384Z,17.37
2018-02-15T19:12:53.614Z,22.17
2018-02-15T19:17:56.686Z,18.07
2018-02-15T19:22:59.770Z,16.03
2018-02-15T19:28:03.697Z,18.53
2018-02-15T19:33:07.883Z,19.17
2018-02-15T19:38:11.757Z,18.37
2018-02-15T19:43:14.854Z,19.17
2018-02-15T19:48:19.303Z,18.63
2018-02-15T19:53:31.290Z,23.97
2018-02-15T19:58:35.866Z,19.50
2018-02-15T20:03:39.468Z,20.27
2018-02-15T20:08:45.007Z,23.42
2018-02-15T20:13:48.855Z,18.20
2018-02-15T20:18:52.742Z,18.03
2018-02-15T20:23:55.814Z,25.37
2018-02-15T20:28:59.654Z,22.03
2018-02-15T20:34:03.506Z,23.67
2018-02-15T20:39:12.487Z,23.40
2018-02-15T20:44:15.811Z,19.92
2018-02-15T20:49:24.632Z,18.37
2018-02-15T20:54:33.976Z,18.80
2018-02-15T20:59:37.059Z,20.97
2018-02-15T21:04:40.173Z,21.37
2018-02-15T21:09:43.231Z,18.47
2018-02-15T21:14:47.081Z,22.73
2018-02-15T21:19:50.166Z,23.33
2018-02-15T21:24:53.282Z,21.37
2018-02-15T21:29:56.431Z,20.00
2018-02-15T21:35:01.200Z,20.63
2018-02-15T21:40:05.074Z,20.40
2018-02-15T21:45:08.270Z,20.37
2018-02-15T21:50:11.531Z,30.77
2018-02-15T21:55:17.525Z,36.83
2018-02-15T22:00:20.754Z,27.87
2018-02-15T22:05:24.750Z,34.73
2018-02-15T22:10:28.586Z,25.10
2018-02-15T22:15:31.694Z,25.67
2018-02-15T22:20:36.137Z,29.90
2018-02-15T22:25:40.091Z,33.50
2018-02-15T22:30:44.004Z,28.30
2018-02-15T22:35:47.452Z,35.23
2018-02-15T22:40:50.554Z,34.97
2018-02-15T22:45:55.014Z,31.27
2018-02-15T22:50:59.639Z,25.17
2018-02-15T22:56:04.163Z,23.27
2018-02-15T23:01:07.718Z,22.50
2018-02-15T23:06:10.884Z,31.10
2018-02-15T23:11:14.050Z,32.23
2018-02-15T23:16:18.292Z,28.87
2018-02-15T23:21:22.146Z,41.00
2018-02-15T23:26:26.370Z,47.13
2018-02-15T23:31:29.830Z,41.53
2018-02-15T23:36:33.303Z,35.73
2018-02-15T23:41:38.285Z,33.73
2018-02-15T23:46:41.410Z,34.93
2018-02-15T23:51:45.250Z,28.47
2018-02-15T23:56:49.001Z,31.87
